sensor_id;sensor_type;location;lat;lon;timestamp;pressure;altitude;pressure_sealevel;temperature;humidity
8061;BME280;4073;42.626;25.386;2023-07-24T00:00:41;97382.75;;;21.95;100.00
8061;BME280;4073;42.626;25.386;2023-07-24T00:03:06;97403.16;;;22.13;100.00
8061;BME280;4073;42.626;25.386;2023-07-24T00:05:32;97377.41;;;21.99;100.00
8061;BME280;4073;42.626;25.386;2023-07-24T00:07:57;97384.09;;;22.01;100.00
8061;BME280;4073;42.626;25.386;2023-07-24T00:10:23;97404.06;;;22.17;100.00
8061;BME280;4073;42.626;25.386;2023-07-24T00:12:48;97409.53;;;22.17;100.00
8061;BME280;4073;42.626;25.386;2023-07-24T00:15:14;97397.72;;;22.13;100.00
8061;BME280;4073;42.626;25.386;2023-07-24T00:17:39;97403.88;;;22.22;100.00
8061;BME280;4073;42.626;25.386;2023-07-24T00:20:06;97404.09;;;22.29;100.00
8061;BME280;4073;42.626;25.386;2023-07-24T00:22:31;97397.03;;;22.28;100.00
8061;BME280;4073;42.626;25.386;2023-07-24T00:24:57;97380.72;;;22.16;100.00
8061;BME280;4073;42.626;25.386;2023-07-24T00:27:22;97391.38;;;22.33;100.00
8061;BME280;4073;42.626;25.386;2023-07-24T00:29:47;97368.91;;;22.24;100.00
8061;BME280;4073;42.626;25.386;2023-07-24T00:32:14;97394.66;;;22.39;100.00
8061;BME280;4073;42.626;25.386;2023-07-24T00:34:40;97371.75;;;22.28;100.00
8061;BME280;4073;42.626;25.386;2023-07-24T00:37:05;97382.94;;;22.38;100.00
8061;BME280;4073;42.626;25.386;2023-07-24T00:39:31;97391.34;;;22.45;100.00
8061;BME280;4073;42.626;25.386;2023-07-24T00:41:56;97381.03;;;22.39;100.00
8061;BME280;4073;42.626;25.386;2023-07-24T00:44:22;97387.72;;;22.41;100.00
8061;BME280;4073;42.626;25.386;2023-07-24T00:46:47;97359.38;;;22.30;100.00
8061;BME280;4073;42.626;25.386;2023-07-24T00:49:13;97377.72;;;22.45;100.00
8061;BME280;4073;42.626;25.386;2023-07-24T00:51:39;97390.78;;;22.40;100.00
8061;BME280;4073;42.626;25.386;2023-07-24T00:54:05;97390.09;;;22.43;100.00
8061;BME280;4073;42.626;25.386;2023-07-24T00:56:32;97380.91;;;22.35;100.00
8061;BME280;4073;42.626;25.386;2023-07-24T00:58:59;97397.03;;;22.40;100.00
8061;BME280;4073;42.626;25.386;2023-07-24T01:01:25;97381.72;;;22.36;100.00
8061;BME280;4073;42.626;25.386;2023-07-24T01:03:51;97368.13;;;22.12;100.00
8061;BME280;4073;42.626;25.386;2023-07-24T01:06:16;97383.09;;;22.06;100.00
8061;BME280;4073;42.626;25.386;2023-07-24T01:08:42;97375.94;;;21.89;100.00
8061;BME280;4073;42.626;25.386;2023-07-24T01:11:26;97390.69;;;22.00;100.00
8061;BME280;4073;42.626;25.386;2023-07-24T01:13:57;97396.38;;;21.95;100.00
8061;BME280;4073;42.626;25.386;2023-07-24T01:16:28;97385.69;;;21.78;100.00
8061;BME280;4073;42.626;25.386;2023-07-24T01:18:58;97378.59;;;21.65;100.00
8061;BME280;4073;42.626;25.386;2023-07-24T01:21:33;97389.09;;;21.55;100.00
8061;BME280;4073;42.626;25.386;2023-07-24T01:24:14;97389.25;;;21.58;100.00
8061;BME280;4073;42.626;25.386;2023-07-24T01:26:43;97397.94;;;21.52;100.00
8061;BME280;4073;42.626;25.386;2023-07-24T01:29:09;97389.41;;;21.41;100.00
8061;BME280;4073;42.626;25.386;2023-07-24T01:31:34;97378.75;;;21.36;100.00
8061;BME280;4073;42.626;25.386;2023-07-24T01:34:00;97367.50;;;21.26;100.00
8061;BME280;4073;42.626;25.386;2023-07-24T01:36:25;97399.50;;;21.41;100.00
8061;BME280;4073;42.626;25.386;2023-07-24T01:38:51;97373.28;;;21.24;100.00
8061;BME280;4073;42.626;25.386;2023-07-24T01:41:17;97379.81;;;21.23;100.00
8061;BME280;4073;42.626;25.386;2023-07-24T01:43:43;97398.34;;;21.30;100.00
8061;BME280;4073;42.626;25.386;2023-07-24T01:46:09;97374.22;;;21.08;100.00
8061;BME280;4073;42.626;25.386;2023-07-24T01:48:34;97374.53;;;21.06;100.00
8061;BME280;4073;42.626;25.386;2023-07-24T01:50:59;97386.28;;;21.19;100.00
8061;BME280;4073;42.626;25.386;2023-07-24T01:53:25;97385.91;;;21.08;100.00
8061;BME280;4073;42.626;25.386;2023-07-24T01:55:50;97398.59;;;21.16;100.00
8061;BME280;4073;42.626;25.386;2023-07-24T01:58:16;97401.47;;;20.99;100.00
8061;BME280;4073;42.626;25.386;2023-07-24T02:00:41;97406.56;;;20.80;100.00
8061;BME280;4073;42.626;25.386;2023-07-24T02:03:07;97391.97;;;20.64;100.00
8061;BME280;4073;42.626;25.386;2023-07-24T02:05:32;97407.53;;;20.55;100.00
8061;BME280;4073;42.626;25.386;2023-07-24T02:07:57;97400.72;;;20.49;100.00
8061;BME280;4073;42.626;25.386;2023-07-24T02:10:23;97393.88;;;20.43;100.00
8061;BME280;4073;42.626;25.386;2023-07-24T02:12:48;97381.94;;;20.35;100.00
8061;BME280;4073;42.626;25.386;2023-07-24T02:15:14;97366.91;;;20.38;100.00
8061;BME280;4073;42.626;25.386;2023-07-24T02:17:39;97378.50;;;20.47;100.00
8061;BME280;4073;42.626;25.386;2023-07-24T02:20:05;97396.75;;;20.67;100.00
8061;BME280;4073;42.626;25.386;2023-07-24T02:22:31;97411.75;;;20.73;100.00
8061;BME280;4073;42.626;25.386;2023-07-24T02:24:56;97401.19;;;20.72;100.00
8061;BME280;4073;42.626;25.386;2023-07-24T02:27:27;97390.44;;;20.75;100.00
8061;BME280;4073;42.626;25.386;2023-07-24T02:29:53;97374.44;;;20.62;100.00
8061;BME280;4073;42.626;25.386;2023-07-24T02:32:19;97390.94;;;20.77;100.00
8061;BME280;4073;42.626;25.386;2023-07-24T02:34:50;97395.88;;;20.75;100.00
8061;BME280;4073;42.626;25.386;2023-07-24T02:37:16;97374.28;;;20.58;100.00
8061;BME280;4073;42.626;25.386;2023-07-24T02:39:42;97398.41;;;20.80;100.00
8061;BME280;4073;42.626;25.386;2023-07-24T02:42:07;97397.28;;;20.81;100.00
8061;BME280;4073;42.626;25.386;2023-07-24T02:44:34;97372.56;;;20.74;100.00
8061;BME280;4073;42.626;25.386;2023-07-24T02:46:59;97379.25;;;20.77;100.00
8061;BME280;4073;42.626;25.386;2023-07-24T02:49:25;97393.38;;;20.91;100.00
8061;BME280;4073;42.626;25.386;2023-07-24T02:51:50;97362.25;;;20.68;100.00
8061;BME280;4073;42.626;25.386;2023-07-24T02:54:16;97376.28;;;20.70;100.00
8061;BME280;4073;42.626;25.386;2023-07-24T02:56:41;97372.97;;;20.64;100.00
8061;BME280;4073;42.626;25.386;2023-07-24T02:59:07;97380.44;;;20.67;100.00
8061;BME280;4073;42.626;25.386;2023-07-24T03:01:32;97399.00;;;20.65;100.00
8061;BME280;4073;42.626;25.386;2023-07-24T03:03:58;97377.84;;;20.50;100.00
8061;BME280;4073;42.626;25.386;2023-07-24T03:06:23;97379.44;;;20.51;100.00
8061;BME280;4073;42.626;25.386;2023-07-24T03:08:49;97392.78;;;20.65;100.00
8061;BME280;4073;42.626;25.386;2023-07-24T03:11:14;97377.38;;;20.48;100.00
8061;BME280;4073;42.626;25.386;2023-07-24T03:13:40;97398.88;;;20.62;100.00
8061;BME280;4073;42.626;25.386;2023-07-24T03:16:06;97372.59;;;20.45;100.00
8061;BME280;4073;42.626;25.386;2023-07-24T03:18:31;97403.72;;;20.56;100.00
8061;BME280;4073;42.626;25.386;2023-07-24T03:20:58;97393.59;;;20.36;100.00
8061;BME280;4073;42.626;25.386;2023-07-24T03:23:24;97407.78;;;20.42;100.00
8061;BME280;4073;42.626;25.386;2023-07-24T03:25:49;97394.31;;;20.45;100.00
8061;BME280;4073;42.626;25.386;2023-07-24T03:28:15;97389.38;;;20.47;100.00
8061;BME280;4073;42.626;25.386;2023-07-24T03:30:40;97387.25;;;20.53;100.00
8061;BME280;4073;42.626;25.386;2023-07-24T03:33:06;97378.84;;;20.46;100.00
8061;BME280;4073;42.626;25.386;2023-07-24T03:35:32;97391.06;;;20.60;100.00
8061;BME280;4073;42.626;25.386;2023-07-24T03:37:58;97397.41;;;20.64;100.00
8061;BME280;4073;42.626;25.386;2023-07-24T03:40:23;97383.34;;;20.62;100.00
8061;BME280;4073;42.626;25.386;2023-07-24T03:42:49;97394.84;;;20.68;100.00
8061;BME280;4073;42.626;25.386;2023-07-24T03:45:14;97396.44;;;20.69;100.00
8061;BME280;4073;42.626;25.386;2023-07-24T03:47:39;97386.88;;;20.63;100.00
8061;BME280;4073;42.626;25.386;2023-07-24T03:50:05;97369.03;;;20.32;100.00
8061;BME280;4073;42.626;25.386;2023-07-24T03:52:31;97375.31;;;20.24;100.00
8061;BME280;4073;42.626;25.386;2023-07-24T03:54:56;97366.19;;;20.29;100.00
8061;BME280;4073;42.626;25.386;2023-07-24T03:57:22;97377.75;;;20.38;100.00
8061;BME280;4073;42.626;25.386;2023-07-24T03:59:47;97390.56;;;20.38;100.00
8061;BME280;4073;42.626;25.386;2023-07-24T04:02:12;97371.84;;;20.15;100.00
8061;BME280;4073;42.626;25.386;2023-07-24T04:04:38;97371.41;;;20.05;100.00
8061;BME280;4073;42.626;25.386;2023-07-24T04:07:04;97386.00;;;20.21;100.00
8061;BME280;4073;42.626;25.386;2023-07-24T04:09:30;97403.72;;;20.27;100.00
8061;BME280;4073;42.626;25.386;2023-07-24T04:11:56;97405.44;;;20.31;100.00
8061;BME280;4073;42.626;25.386;2023-07-24T04:14:21;97397.56;;;20.38;100.00
8061;BME280;4073;42.626;25.386;2023-07-24T04:16:46;97404.88;;;20.47;100.00
8061;BME280;4073;42.626;25.386;2023-07-24T04:19:12;97376.19;;;20.37;100.00
8061;BME280;4073;42.626;25.386;2023-07-24T04:21:38;97393.56;;;20.45;100.00
8061;BME280;4073;42.626;25.386;2023-07-24T04:24:03;97400.44;;;20.42;100.00
8061;BME280;4073;42.626;25.386;2023-07-24T04:26:29;97398.56;;;20.34;100.00
8061;BME280;4073;42.626;25.386;2023-07-24T04:28:54;97399.22;;;20.31;100.00
8061;BME280;4073;42.626;25.386;2023-07-24T04:31:20;97399.38;;;20.34;100.00
8061;BME280;4073;42.626;25.386;2023-07-24T04:33:45;97392.47;;;20.37;100.00
8061;BME280;4073;42.626;25.386;2023-07-24T04:36:11;97397.03;;;20.45;100.00
8061;BME280;4073;42.626;25.386;2023-07-24T04:38:36;97400.06;;;20.52;100.00
8061;BME280;4073;42.626;25.386;2023-07-24T04:41:02;97390.56;;;20.58;100.00
8061;BME280;4073;42.626;25.386;2023-07-24T04:43:28;97369.50;;;20.55;100.00
8061;BME280;4073;42.626;25.386;2023-07-24T04:45:54;97391.59;;;20.74;100.00
8061;BME280;4073;42.626;25.386;2023-07-24T04:48:19;97373.28;;;20.63;100.00
8061;BME280;4073;42.626;25.386;2023-07-24T04:50:45;97380.84;;;20.57;100.00
8061;BME280;4073;42.626;25.386;2023-07-24T04:53:10;97391.91;;;20.73;100.00
8061;BME280;4073;42.626;25.386;2023-07-24T04:55:36;97370.91;;;20.61;100.00
8061;BME280;4073;42.626;25.386;2023-07-24T04:58:01;97376.41;;;20.73;100.00
8061;BME280;4073;42.626;25.386;2023-07-24T05:00:26;97389.72;;;20.87;100.00
8061;BME280;4073;42.626;25.386;2023-07-24T05:02:52;97390.72;;;20.82;100.00
8061;BME280;4073;42.626;25.386;2023-07-24T05:05:17;97386.22;;;20.86;100.00
8061;BME280;4073;42.626;25.386;2023-07-24T05:07:43;97404.78;;;21.05;100.00
8061;BME280;4073;42.626;25.386;2023-07-24T05:10:09;97399.50;;;21.08;100.00
8061;BME280;4073;42.626;25.386;2023-07-24T05:12:34;97383.25;;;21.00;100.00
8061;BME280;4073;42.626;25.386;2023-07-24T05:14:59;97398.41;;;21.21;100.00
8061;BME280;4073;42.626;25.386;2023-07-24T05:17:25;97385.81;;;21.17;100.00
8061;BME280;4073;42.626;25.386;2023-07-24T05:19:50;97414.91;;;21.37;100.00
8061;BME280;4073;42.626;25.386;2023-07-24T05:22:16;97414.75;;;21.33;100.00
8061;BME280;4073;42.626;25.386;2023-07-24T05:24:41;97422.16;;;21.33;100.00
8061;BME280;4073;42.626;25.386;2023-07-24T05:27:07;97389.00;;;21.19;100.00
8061;BME280;4073;42.626;25.386;2023-07-24T05:29:32;97394.81;;;21.29;100.00
8061;BME280;4073;42.626;25.386;2023-07-24T05:31:58;97402.09;;;21.37;100.00
8061;BME280;4073;42.626;25.386;2023-07-24T05:34:24;97411.75;;;21.47;100.00
8061;BME280;4073;42.626;25.386;2023-07-24T05:36:50;97384.31;;;21.40;100.00
8061;BME280;4073;42.626;25.386;2023-07-24T05:39:15;97415.09;;;21.64;100.00
8061;BME280;4073;42.626;25.386;2023-07-24T05:41:40;97417.59;;;21.69;100.00
8061;BME280;4073;42.626;25.386;2023-07-24T05:44:06;97387.03;;;21.72;100.00
8061;BME280;4073;42.626;25.386;2023-07-24T05:46:31;97414.03;;;22.01;100.00
8061;BME280;4073;42.626;25.386;2023-07-24T05:48:57;97407.13;;;22.16;100.00
8061;BME280;4073;42.626;25.386;2023-07-24T05:51:22;97414.09;;;22.25;100.00
8061;BME280;4073;42.626;25.386;2023-07-24T05:53:48;97386.94;;;22.29;100.00
8061;BME280;4073;42.626;25.386;2023-07-24T05:56:13;97391.16;;;22.50;100.00
8061;BME280;4073;42.626;25.386;2023-07-24T05:58:39;97407.59;;;22.78;100.00
8061;BME280;4073;42.626;25.386;2023-07-24T06:01:04;97405.75;;;23.10;100.00
8061;BME280;4073;42.626;25.386;2023-07-24T06:03:30;97412.59;;;23.43;100.00
8061;BME280;4073;42.626;25.386;2023-07-24T06:05:56;97418.28;;;23.66;100.00
8061;BME280;4073;42.626;25.386;2023-07-24T06:08:22;97405.63;;;23.89;100.00
8061;BME280;4073;42.626;25.386;2023-07-24T06:10:49;97401.50;;;24.10;100.00
8061;BME280;4073;42.626;25.386;2023-07-24T06:13:16;97401.34;;;24.34;100.00
8061;BME280;4073;42.626;25.386;2023-07-24T06:15:41;97406.44;;;24.67;100.00
8061;BME280;4073;42.626;25.386;2023-07-24T06:18:07;97404.94;;;24.88;100.00
8061;BME280;4073;42.626;25.386;2023-07-24T06:20:32;97412.94;;;25.16;100.00
8061;BME280;4073;42.626;25.386;2023-07-24T06:22:58;97416.59;;;25.39;100.00
8061;BME280;4073;42.626;25.386;2023-07-24T06:25:23;97414.97;;;25.57;100.00
8061;BME280;4073;42.626;25.386;2023-07-24T06:27:49;97412.13;;;25.73;100.00
8061;BME280;4073;42.626;25.386;2023-07-24T06:30:14;97393.28;;;25.90;100.00
8061;BME280;4073;42.626;25.386;2023-07-24T06:32:40;97399.16;;;26.11;100.00
8061;BME280;4073;42.626;25.386;2023-07-24T06:35:05;97377.06;;;26.23;100.00
8061;BME280;4073;42.626;25.386;2023-07-24T06:37:31;97392.47;;;26.57;97.26
8061;BME280;4073;42.626;25.386;2023-07-24T06:39:56;97392.03;;;26.81;93.49
8061;BME280;4073;42.626;25.386;2023-07-24T06:42:22;97388.50;;;27.10;91.82
8061;BME280;4073;42.626;25.386;2023-07-24T06:44:47;97391.50;;;27.28;89.84
8061;BME280;4073;42.626;25.386;2023-07-24T06:47:13;97386.53;;;27.40;87.99
8061;BME280;4073;42.626;25.386;2023-07-24T06:49:38;97382.88;;;27.66;83.33
8061;BME280;4073;42.626;25.386;2023-07-24T06:52:04;97372.41;;;27.75;83.15
8061;BME280;4073;42.626;25.386;2023-07-24T06:54:29;97381.34;;;28.09;76.86
8061;BME280;4073;42.626;25.386;2023-07-24T06:56:55;97395.25;;;28.26;72.22
8061;BME280;4073;42.626;25.386;2023-07-24T06:59:20;97386.81;;;28.52;66.99
8061;BME280;4073;42.626;25.386;2023-07-24T07:01:46;97385.75;;;28.67;67.46
8061;BME280;4073;42.626;25.386;2023-07-24T07:04:11;97361.00;;;28.71;65.44
8061;BME280;4073;42.626;25.386;2023-07-24T07:06:37;97366.31;;;29.04;66.79
8061;BME280;4073;42.626;25.386;2023-07-24T07:09:02;97371.13;;;29.21;65.86
8061;BME280;4073;42.626;25.386;2023-07-24T07:11:28;97353.03;;;29.20;65.25
8061;BME280;4073;42.626;25.386;2023-07-24T07:13:53;97335.38;;;29.31;63.79
8061;BME280;4073;42.626;25.386;2023-07-24T07:16:19;97359.91;;;29.72;61.86
8061;BME280;4073;42.626;25.386;2023-07-24T07:18:44;97354.00;;;29.84;61.48
8061;BME280;4073;42.626;25.386;2023-07-24T07:21:10;97356.38;;;30.03;62.00
8061;BME280;4073;42.626;25.386;2023-07-24T07:23:36;97359.50;;;30.12;61.14
8061;BME280;4073;42.626;25.386;2023-07-24T07:26:01;97348.91;;;30.38;62.76
8061;BME280;4073;42.626;25.386;2023-07-24T07:28:27;97333.13;;;30.46;60.99
8061;BME280;4073;42.626;25.386;2023-07-24T07:30:53;97353.19;;;30.67;61.19
8061;BME280;4073;42.626;25.386;2023-07-24T07:33:19;97353.59;;;30.76;60.56
8061;BME280;4073;42.626;25.386;2023-07-24T07:35:47;97355.50;;;30.93;58.21
8061;BME280;4073;42.626;25.386;2023-07-24T07:38:12;97344.09;;;30.84;56.61
8061;BME280;4073;42.626;25.386;2023-07-24T07:40:38;97353.59;;;30.76;58.54
8061;BME280;4073;42.626;25.386;2023-07-24T07:43:06;97351.19;;;30.92;57.33
8061;BME280;4073;42.626;25.386;2023-07-24T07:45:32;97353.53;;;30.97;56.42
8061;BME280;4073;42.626;25.386;2023-07-24T07:47:57;97328.28;;;30.99;55.44
8061;BME280;4073;42.626;25.386;2023-07-24T07:50:22;97349.56;;;30.98;56.05
8061;BME280;4073;42.626;25.386;2023-07-24T07:52:52;97348.44;;;30.71;56.81
8061;BME280;4073;42.626;25.386;2023-07-24T07:55:20;97344.03;;;30.98;56.28
8061;BME280;4073;42.626;25.386;2023-07-24T07:57:46;97347.09;;;31.28;54.72
8061;BME280;4073;42.626;25.386;2023-07-24T08:00:12;97350.91;;;31.59;53.11
8061;BME280;4073;42.626;25.386;2023-07-24T08:02:37;97340.63;;;31.59;52.03
8061;BME280;4073;42.626;25.386;2023-07-24T08:05:10;97337.78;;;31.73;51.93
8061;BME280;4073;42.626;25.386;2023-07-24T08:07:35;97342.78;;;31.92;51.68
8061;BME280;4073;42.626;25.386;2023-07-24T08:10:02;97340.31;;;32.09;50.85
8061;BME280;4073;42.626;25.386;2023-07-24T08:12:28;97341.84;;;32.13;50.35
8061;BME280;4073;42.626;25.386;2023-07-24T08:14:53;97326.66;;;32.32;50.38
8061;BME280;4073;42.626;25.386;2023-07-24T08:17:19;97330.16;;;32.39;49.12
8061;BME280;4073;42.626;25.386;2023-07-24T08:19:45;97333.44;;;32.68;48.50
8061;BME280;4073;42.626;25.386;2023-07-24T08:22:10;97325.38;;;32.84;47.36
8061;BME280;4073;42.626;25.386;2023-07-24T08:24:36;97318.75;;;32.74;46.98
8061;BME280;4073;42.626;25.386;2023-07-24T08:27:02;97306.97;;;32.63;46.40
8061;BME280;4073;42.626;25.386;2023-07-24T08:29:28;97318.91;;;32.60;46.50
8061;BME280;4073;42.626;25.386;2023-07-24T08:31:53;97310.03;;;32.76;45.02
8061;BME280;4073;42.626;25.386;2023-07-24T08:34:19;97308.91;;;33.07;45.13
8061;BME280;4073;42.626;25.386;2023-07-24T08:36:44;97320.25;;;33.46;43.02
8061;BME280;4073;42.626;25.386;2023-07-24T08:39:10;97331.94;;;33.87;42.21
8061;BME280;4073;42.626;25.386;2023-07-24T08:41:37;97324.69;;;34.19;41.04
8061;BME280;4073;42.626;25.386;2023-07-24T08:44:05;97317.69;;;34.11;40.45
8061;BME280;4073;42.626;25.386;2023-07-24T08:46:35;97323.66;;;34.33;40.43
8061;BME280;4073;42.626;25.386;2023-07-24T08:49:01;97328.38;;;34.59;39.63
8061;BME280;4073;42.626;25.386;2023-07-24T08:51:28;97323.16;;;34.61;38.95
8061;BME280;4073;42.626;25.386;2023-07-24T08:53:55;97308.31;;;34.71;38.50
8061;BME280;4073;42.626;25.386;2023-07-24T08:56:21;97316.88;;;34.80;37.33
8061;BME280;4073;42.626;25.386;2023-07-24T08:58:47;97316.75;;;34.87;36.98
8061;BME280;4073;42.626;25.386;2023-07-24T09:01:13;97309.50;;;34.93;37.70
8061;BME280;4073;42.626;25.386;2023-07-24T09:03:38;97299.13;;;35.13;34.95
8061;BME280;4073;42.626;25.386;2023-07-24T09:06:04;97320.38;;;35.43;33.54
8061;BME280;4073;42.626;25.386;2023-07-24T09:08:36;97293.97;;;35.51;34.87
8061;BME280;4073;42.626;25.386;2023-07-24T09:11:04;97309.00;;;35.89;35.52
8061;BME280;4073;42.626;25.386;2023-07-24T09:13:30;97310.06;;;35.59;33.17
8061;BME280;4073;42.626;25.386;2023-07-24T09:15:56;97305.53;;;35.49;33.77
8061;BME280;4073;42.626;25.386;2023-07-24T09:18:22;97306.19;;;35.18;34.63
8061;BME280;4073;42.626;25.386;2023-07-24T09:20:48;97294.16;;;35.05;34.33
8061;BME280;4073;42.626;25.386;2023-07-24T09:23:14;97285.97;;;34.98;33.77
8061;BME280;4073;42.626;25.386;2023-07-24T09:25:42;97304.94;;;34.83;34.33
8061;BME280;4073;42.626;25.386;2023-07-24T09:28:16;97297.41;;;34.80;34.40
8061;BME280;4073;42.626;25.386;2023-07-24T09:30:51;97284.78;;;34.99;33.77
8061;BME280;4073;42.626;25.386;2023-07-24T09:33:17;97279.16;;;35.38;33.19
8061;BME280;4073;42.626;25.386;2023-07-24T09:35:43;97272.00;;;35.72;32.84
8061;BME280;4073;42.626;25.386;2023-07-24T09:38:10;97282.47;;;36.00;33.04
8061;BME280;4073;42.626;25.386;2023-07-24T09:40:45;97281.50;;;36.23;33.55
8061;BME280;4073;42.626;25.386;2023-07-24T09:43:23;97260.53;;;36.18;31.73
8061;BME280;4073;42.626;25.386;2023-07-24T09:45:50;97287.63;;;36.34;31.88
8061;BME280;4073;42.626;25.386;2023-07-24T09:48:17;97279.66;;;35.68;32.29
8061;BME280;4073;42.626;25.386;2023-07-24T09:50:54;97254.63;;;35.68;32.21
8061;BME280;4073;42.626;25.386;2023-07-24T09:53:39;97264.34;;;35.76;31.30
8061;BME280;4073;42.626;25.386;2023-07-24T09:56:09;97266.09;;;36.18;31.73
8061;BME280;4073;42.626;25.386;2023-07-24T09:58:39;97244.53;;;35.74;31.70
8061;BME280;4073;42.626;25.386;2023-07-24T10:01:09;97257.78;;;36.02;31.53
8061;BME280;4073;42.626;25.386;2023-07-24T10:03:46;97260.41;;;35.93;31.49
8061;BME280;4073;42.626;25.386;2023-07-24T10:06:12;97252.28;;;36.15;31.80
8061;BME280;4073;42.626;25.386;2023-07-24T10:08:40;97201.94;;;36.25;31.20
8061;BME280;4073;42.626;25.386;2023-07-24T10:11:07;97238.34;;;36.76;30.93
8061;BME280;4073;42.626;25.386;2023-07-24T10:13:34;97206.84;;;36.63;30.87
8061;BME280;4073;42.626;25.386;2023-07-24T10:16:02;97214.94;;;36.73;30.82
8061;BME280;4073;42.626;25.386;2023-07-24T10:18:30;97231.38;;;36.96;30.14
8061;BME280;4073;42.626;25.386;2023-07-24T10:21:07;97224.94;;;37.12;30.13
8061;BME280;4073;42.626;25.386;2023-07-24T10:23:37;97223.19;;;37.18;29.11
8061;BME280;4073;42.626;25.386;2023-07-24T10:26:06;97220.00;;;37.03;30.04
8061;BME280;4073;42.626;25.386;2023-07-24T10:28:33;97208.28;;;36.83;30.59
8061;BME280;4073;42.626;25.386;2023-07-24T10:31:00;97208.50;;;36.60;31.31
8061;BME280;4073;42.626;25.386;2023-07-24T10:33:30;97210.16;;;36.45;30.42
8061;BME280;4073;42.626;25.386;2023-07-24T10:36:05;97214.16;;;35.83;30.09
8061;BME280;4073;42.626;25.386;2023-07-24T10:38:37;97214.88;;;36.16;30.77
8061;BME280;4073;42.626;25.386;2023-07-24T10:41:05;97206.75;;;36.37;30.57
8061;BME280;4073;42.626;25.386;2023-07-24T10:43:44;97204.16;;;36.59;31.03
8061;BME280;4073;42.626;25.386;2023-07-24T10:46:11;97202.34;;;36.81;29.47
8061;BME280;4073;42.626;25.386;2023-07-24T10:48:37;97178.06;;;36.40;28.75
8061;BME280;4073;42.626;25.386;2023-07-24T10:51:08;97193.81;;;36.60;29.03
8061;BME280;4073;42.626;25.386;2023-07-24T10:53:43;97191.41;;;36.74;29.18
8061;BME280;4073;42.626;25.386;2023-07-24T10:56:09;97189.47;;;37.12;29.27
8061;BME280;4073;42.626;25.386;2023-07-24T10:58:34;97170.22;;;37.30;29.82
8061;BME280;4073;42.626;25.386;2023-07-24T11:01:03;97172.66;;;37.53;29.48
8061;BME280;4073;42.626;25.386;2023-07-24T11:03:30;97180.00;;;38.06;28.48
8061;BME280;4073;42.626;25.386;2023-07-24T11:05:57;97176.66;;;38.45;27.28
8061;BME280;4073;42.626;25.386;2023-07-24T11:08:23;97149.28;;;38.40;27.93
8061;BME280;4073;42.626;25.386;2023-07-24T11:10:50;97160.66;;;38.46;26.64
8061;BME280;4073;42.626;25.386;2023-07-24T11:13:17;97159.72;;;38.27;27.83
8061;BME280;4073;42.626;25.386;2023-07-24T11:15:43;97160.66;;;38.24;26.11
8061;BME280;4073;42.626;25.386;2023-07-24T11:18:09;97140.00;;;38.22;26.50
8061;BME280;4073;42.626;25.386;2023-07-24T11:20:44;97154.59;;;38.47;26.25
8061;BME280;4073;42.626;25.386;2023-07-24T11:23:10;97150.22;;;39.11;25.48
8061;BME280;4073;42.626;25.386;2023-07-24T11:25:37;97130.38;;;39.27;25.41
8061;BME280;4073;42.626;25.386;2023-07-24T11:28:05;97155.53;;;39.18;25.56
8061;BME280;4073;42.626;25.386;2023-07-24T11:30:31;97142.59;;;39.12;25.36
8061;BME280;4073;42.626;25.386;2023-07-24T11:32:59;97126.41;;;38.98;25.54
8061;BME280;4073;42.626;25.386;2023-07-24T11:35:26;97142.78;;;38.87;25.40
8061;BME280;4073;42.626;25.386;2023-07-24T11:37:52;97137.63;;;38.33;26.00
8061;BME280;4073;42.626;25.386;2023-07-24T11:40:17;97110.81;;;38.01;26.12
8061;BME280;4073;42.626;25.386;2023-07-24T11:42:46;97122.84;;;37.77;26.88
8061;BME280;4073;42.626;25.386;2023-07-24T11:45:12;97128.84;;;37.29;26.91
8061;BME280;4073;42.626;25.386;2023-07-24T11:47:45;97114.22;;;36.87;26.86
8061;BME280;4073;42.626;25.386;2023-07-24T11:50:11;97124.69;;;36.96;26.73
8061;BME280;4073;42.626;25.386;2023-07-24T11:52:46;97121.13;;;36.95;26.36
8061;BME280;4073;42.626;25.386;2023-07-24T11:55:13;97091.91;;;36.87;26.79
8061;BME280;4073;42.626;25.386;2023-07-24T11:57:39;97112.34;;;37.22;26.51
8061;BME280;4073;42.626;25.386;2023-07-24T12:00:16;97104.75;;;37.35;25.90
8061;BME280;4073;42.626;25.386;2023-07-24T12:02:42;97090.69;;;37.26;26.26
8061;BME280;4073;42.626;25.386;2023-07-24T12:05:09;97112.28;;;37.47;26.81
8061;BME280;4073;42.626;25.386;2023-07-24T12:07:38;97095.03;;;37.39;27.75
8061;BME280;4073;42.626;25.386;2023-07-24T12:10:05;97096.00;;;37.45;27.22
8061;BME280;4073;42.626;25.386;2023-07-24T12:12:45;97098.69;;;37.49;27.52
8061;BME280;4073;42.626;25.386;2023-07-24T12:15:11;97076.97;;;37.31;27.45
8061;BME280;4073;42.626;25.386;2023-07-24T12:17:37;97106.06;;;37.05;28.29
8061;BME280;4073;42.626;25.386;2023-07-24T12:20:04;97094.53;;;36.66;28.84
8061;BME280;4073;42.626;25.386;2023-07-24T12:22:31;97078.97;;;36.68;28.69
8061;BME280;4073;42.626;25.386;2023-07-24T12:24:57;97089.13;;;36.75;27.56
8061;BME280;4073;42.626;25.386;2023-07-24T12:27:23;97087.38;;;36.81;27.78
8061;BME280;4073;42.626;25.386;2023-07-24T12:29:50;97090.31;;;36.61;28.15
8061;BME280;4073;42.626;25.386;2023-07-24T12:32:16;97088.00;;;36.60;28.44
8061;BME280;4073;42.626;25.386;2023-07-24T12:34:41;97081.84;;;36.52;28.47
8061;BME280;4073;42.626;25.386;2023-07-24T12:37:07;97081.41;;;36.54;28.05
8061;BME280;4073;42.626;25.386;2023-07-24T12:39:32;97079.16;;;36.48;28.59
8061;BME280;4073;42.626;25.386;2023-07-24T12:41:58;97077.16;;;36.62;28.69
8061;BME280;4073;42.626;25.386;2023-07-24T12:44:27;97055.69;;;36.62;28.61
8061;BME280;4073;42.626;25.386;2023-07-24T12:46:53;97071.66;;;36.87;28.74
8061;BME280;4073;42.626;25.386;2023-07-24T12:49:18;97061.19;;;36.91;28.58
8061;BME280;4073;42.626;25.386;2023-07-24T12:51:43;97048.44;;;36.65;28.96
8061;BME280;4073;42.626;25.386;2023-07-24T12:54:09;97060.59;;;36.71;29.13
8061;BME280;4073;42.626;25.386;2023-07-24T12:56:34;97050.28;;;36.30;29.97
8061;BME280;4073;42.626;25.386;2023-07-24T12:59:01;97050.59;;;35.62;30.18
8061;BME280;4073;42.626;25.386;2023-07-24T13:01:27;97049.31;;;35.19;31.55